Time;durP1;ratioP1;P1;durP2;ratioP2;P2;SDS_P1;SDS_P2;PMS_P1;PMS_P2;Temp;Humidity;BMP_temperature;BMP_pressure;BME280_temperature;BME280_humidity;BME280_pressure;Samples;Min_cycle;Max_cycle;Signal;HPM_P1;HPM_P2
2023/03/15 00:00:46;;;;;;;4.90;1.10;;;;;;;3.27;100.00;101250.34;5061144;28;20489;-53
2023/03/15 00:03:13;;;;;;;2.13;0.90;;;;;;;3.27;100.00;101246.03;5047804;28;20056;-52
2023/03/15 00:05:41;;;;;;;6.97;1.42;;;;;;;3.31;100.00;101249.50;5061202;28;20393;-59
2023/03/15 00:08:06;;;;;;;8.27;1.15;;;;;;;3.34;100.00;101253.88;5046952;28;20051;-54
2023/03/15 00:10:31;;;;;;;6.45;1.00;;;;;;;3.37;100.00;101240.84;5047493;28;20037;-53
2023/03/15 00:12:57;;;;;;;9.27;1.20;;;;;;;3.40;100.00;101249.53;5047401;28;20041;-53
2023/03/15 00:15:22;;;;;;;2.65;0.90;;;;;;;3.39;100.00;101246.91;5047617;28;20021;-53
2023/03/15 00:17:47;;;;;;;6.75;1.10;;;;;;;3.45;100.00;101243.44;5047025;28;20032;-56
2023/03/15 00:20:18;;;;;;;3.97;0.82;;;;;;;3.36;100.00;101242.56;5046201;28;20149;-55
2023/03/15 00:22:43;;;;;;;7.07;2.13;;;;;;;3.36;100.00;101252.09;5046826;28;20032;-58
2023/03/15 00:25:09;;;;;;;9.30;1.15;;;;;;;3.36;100.00;101252.09;5046491;28;20021;-58
2023/03/15 00:27:34;;;;;;;9.25;1.20;;;;;;;3.27;100.00;101253.84;5029784;28;20465;-52
2023/03/15 00:29:59;;;;;;;5.63;0.98;;;;;;;3.32;100.00;101259.06;5046849;28;20033;-54
2023/03/15 00:32:25;;;;;;;5.50;1.52;;;;;;;3.27;100.00;101265.97;5046065;28;20051;-52
2023/03/15 00:34:53;;;;;;;6.03;1.10;;;;;;;3.20;100.00;101274.63;5047159;28;20111;-54
2023/03/15 00:37:19;;;;;;;3.88;1.10;;;;;;;3.13;100.00;101269.41;5046569;28;20021;-55
2023/03/15 00:39:45;;;;;;;4.35;1.65;;;;;;;3.08;100.00;101278.06;5047297;28;20086;-57
2023/03/15 00:42:14;;;;;;;6.82;1.10;;;;;;;3.00;100.00;101276.28;5045377;28;20573;-54
2023/03/15 00:44:41;;;;;;;4.28;0.98;;;;;;;2.89;100.00;101285.81;5047166;28;20024;-56
2023/03/15 00:47:07;;;;;;;6.50;1.08;;;;;;;2.89;100.00;101283.19;5046799;28;20124;-52
2023/03/15 00:49:32;;;;;;;4.18;0.90;;;;;;;2.85;100.00;101292.72;5066958;28;20464;-54
2023/03/15 00:51:58;;;;;;;2.40;0.85;;;;;;;2.84;100.00;101295.31;5066416;28;20032;-59
2023/03/15 00:54:23;;;;;;;2.30;1.05;;;;;;;2.82;100.00;101300.50;5067127;28;20200;-53
2023/03/15 00:56:49;;;;;;;1.75;0.90;;;;;;;2.74;100.00;101297.84;5066921;28;20392;-53
2023/03/15 00:59:14;;;;;;;2.78;0.80;;;;;;;2.72;100.00;101301.31;5066993;28;20029;-57
2023/03/15 01:01:43;;;;;;;3.10;1.08;;;;;;;2.71;100.00;101299.56;5040862;28;20131;-56
2023/03/15 01:04:12;;;;;;;3.22;1.10;;;;;;;2.63;100.00;101302.13;5027205;28;20022;-57
2023/03/15 01:06:37;;;;;;;6.38;1.10;;;;;;;2.61;100.00;101303.81;5027219;28;20029;-52
2023/03/15 01:09:03;;;;;;;2.55;0.90;;;;;;;2.59;100.00;101292.56;5026031;28;20528;-53
2023/03/15 01:11:28;;;;;;;1.55;0.90;;;;;;;2.52;100.00;101289.03;5027154;28;20030;-54
2023/03/15 01:13:56;;;;;;;2.58;0.88;;;;;;;2.40;100.00;101300.22;5026503;28;20025;-55
2023/03/15 01:16:21;;;;;;;4.75;1.08;;;;;;;2.32;100.00;101292.34;5024818;28;20052;-52
2023/03/15 01:18:46;;;;;;;3.30;1.00;;;;;;;2.26;100.00;101305.31;5025898;28;20470;-55
2023/03/15 01:21:13;;;;;;;4.03;0.93;;;;;;;2.20;100.00;101306.13;5026464;28;20068;-56
2023/03/15 01:23:39;;;;;;;8.95;1.52;;;;;;;2.19;100.00;101317.38;5026273;28;20026;-55
2023/03/15 01:26:07;;;;;;;3.92;0.95;;;;;;;2.20;100.00;101319.13;5026173;28;20055;-59
2023/03/15 01:28:32;;;;;;;6.28;1.00;;;;;;;2.23;100.00;101319.16;5026528;28;20076;-58
2023/03/15 01:30:58;;;;;;;5.40;1.20;;;;;;;2.23;100.00;101320.91;5028514;28;20037;-56
2023/03/15 01:33:23;;;;;;;7.65;1.15;;;;;;;2.23;100.00;101329.56;5046667;28;20025;-57
2023/03/15 01:36:01;;;;;;;7.63;1.63;;;;;;;2.23;100.00;101332.16;5046003;28;20664;-58
2023/03/15 01:38:26;;;;;;;2.55;0.73;;;;;;;2.27;100.00;101335.66;5045893;28;20057;-57
2023/03/15 01:40:51;;;;;;;4.07;1.00;;;;;;;2.24;100.00;101339.13;5046685;28;20053;-55
2023/03/15 01:43:22;;;;;;;8.20;1.40;;;;;;;2.29;100.00;101343.47;5049537;28;20056;-54
2023/03/15 01:46:02;;;;;;;6.15;1.20;;;;;;;2.30;100.00;101350.41;5050039;28;20029;-54
2023/03/15 01:48:54;;;;;;;2.65;1.23;;;;;;;2.34;100.00;101352.19;5049774;28;20482;-57
2023/03/15 01:51:21;;;;;;;3.80;1.20;;;;;;;2.37;100.00;101360.91;5026996;28;20038;-61
2023/03/15 01:53:53;;;;;;;4.28;1.02;;;;;;;2.42;100.00;101360.94;5028321;28;20040;-54
2023/03/15 01:56:19;;;;;;;5.80;1.42;;;;;;;2.51;100.00;101358.41;5029024;28;20543;-57
2023/03/15 01:58:45;;;;;;;8.20;1.50;;;;;;;2.56;100.00;101362.78;5012219;28;20072;-53
2023/03/15 02:01:10;;;;;;;1.58;1.10;;;;;;;2.62;100.00;101363.69;5029115;28;20127;-57
2023/03/15 02:03:45;;;;;;;5.97;1.50;;;;;;;2.66;100.00;101369.78;5030024;28;20104;-56
2023/03/15 02:06:16;;;;;;;5.43;1.20;;;;;;;2.62;100.00;101373.25;5029147;28;20108;-57
2023/03/15 02:08:45;;;;;;;6.45;1.33;;;;;;;2.66;100.00;101367.19;5028471;28;20076;-55
2023/03/15 02:11:10;;;;;;;11.63;1.58;;;;;;;2.74;100.00;101372.47;5028254;28;20026;-56
2023/03/15 02:13:36;;;;;;;6.20;1.45;;;;;;;2.83;100.00;101372.50;5104486;22;20053;-56
2023/03/15 02:16:05;;;;;;;5.40;1.30;;;;;;;2.82;100.00;101381.19;5029129;28;20029;-57
2023/03/15 02:18:31;;;;;;;5.85;1.25;;;;;;;2.84;100.00;101376.00;5029137;28;20021;-56
2023/03/15 02:21:19;;;;;;;3.38;1.30;;;;;;;2.83;100.00;101390.72;5012149;28;20017;-59
2023/03/15 02:23:47;;;;;;;11.63;1.48;;;;;;;2.81;100.00;101388.97;5028331;28;20029;-57
2023/03/15 02:26:21;;;;;;;9.00;1.63;;;;;;;2.71;100.00;101394.09;5012158;28;20040;-57
2023/03/15 02:28:47;;;;;;;2.92;1.27;;;;;;;2.72;100.00;101390.66;5030001;28;20034;-55
2023/03/15 02:31:13;;;;;;;12.25;1.63;;;;;;;2.68;100.00;101396.69;5011683;28;20036;-57
2023/03/15 02:33:44;;;;;;;9.75;1.40;;;;;;;2.63;100.00;101403.59;5011982;28;20021;-60
2023/03/15 02:36:21;;;;;;;7.25;1.58;;;;;;;2.65;100.00;101400.13;5014685;28;20041;-57
2023/03/15 02:38:48;;;;;;;6.53;1.40;;;;;;;2.61;100.00;101402.69;5028949;28;20030;-57
2023/03/15 02:41:17;;;;;;;5.45;1.20;;;;;;;2.56;100.00;101396.59;5028568;28;20105;-55
2023/03/15 02:43:44;;;;;;;5.90;1.30;;;;;;;2.53;100.00;101405.25;5029013;28;20040;-56
2023/03/15 02:46:10;;;;;;;7.78;1.45;;;;;;;2.50;100.00;101406.09;5011206;28;20072;-57
2023/03/15 02:48:36;;;;;;;4.45;1.23;;;;;;;2.48;100.00;101405.22;5029937;28;20018;-57
2023/03/15 02:51:02;;;;;;;4.53;1.52;;;;;;;2.48;100.00;101413.03;5010704;28;20022;-58
2023/03/15 02:53:31;;;;;;;3.50;1.27;;;;;;;2.43;100.00;101417.28;5027238;28;20980;-56
2023/03/15 02:55:57;;;;;;;8.38;1.40;;;;;;;2.42;100.00;101418.16;5029327;28;20025;-56
2023/03/15 02:58:23;;;;;;;4.93;1.30;;;;;;;2.42;100.00;101420.75;5028974;28;20033;-55
2023/03/15 03:00:48;;;;;;;1.98;1.38;;;;;;;2.43;100.00;101422.50;5028944;28;20030;-56
2023/03/15 03:03:14;;;;;;;12.00;1.35;;;;;;;2.39;100.00;101431.13;5028759;28;20119;-58
2023/03/15 03:05:39;;;;;;;6.80;1.70;;;;;;;2.36;100.00;101431.09;5028968;28;20033;-56
2023/03/15 03:08:05;;;;;;;4.50;1.58;;;;;;;2.37;100.00;101435.44;5028381;28;20038;-57
2023/03/15 03:10:30;;;;;;;6.70;1.80;;;;;;;2.43;100.00;101447.63;5038119;28;20030;-53
2023/03/15 03:12:55;;;;;;;3.80;1.85;;;;;;;2.48;100.00;101446.84;5028544;28;20424;-56
2023/03/15 03:15:21;;;;;;;4.25;1.85;;;;;;;2.55;100.00;101452.97;5027780;28;20049;-56
2023/03/15 03:17:47;;;;;;;5.50;1.38;;;;;;;2.62;100.00;101464.31;5029070;28;20089;-54
2023/03/15 03:20:13;;;;;;;4.90;1.63;;;;;;;2.68;100.00;101456.53;5028712;28;20025;-55
2023/03/15 03:22:39;;;;;;;6.70;1.70;;;;;;;2.73;100.00;101467.00;5028126;28;20375;-58
2023/03/15 03:25:06;;;;;;;5.72;1.70;;;;;;;2.83;100.00;101475.78;5023450;28;20431;-56
2023/03/15 03:27:35;;;;;;;5.35;1.45;;;;;;;2.93;100.00;101471.50;5048345;28;20056;-54
2023/03/15 03:30:05;;;;;;;3.78;1.35;;;;;;;3.00;100.00;101473.28;5047188;28;20063;-57
2023/03/15 03:32:30;;;;;;;4.22;1.65;;;;;;;3.08;100.00;101476.84;5048202;28;20083;-57
2023/03/15 03:34:56;;;;;;;3.50;1.50;;;;;;;3.12;100.00;101480.31;5048255;28;20029;-58
2023/03/15 03:37:21;;;;;;;7.80;1.52;;;;;;;3.16;100.00;101487.28;5047176;28;20047;-55
2023/03/15 03:39:46;;;;;;;7.68;1.70;;;;;;;3.13;100.00;101495.13;5028083;28;20041;-56
2023/03/15 03:42:13;;;;;;;8.52;1.50;;;;;;;3.09;100.00;101488.13;5058377;28;20021;-56
2023/03/15 03:44:39;;;;;;;5.97;1.00;;;;;;;2.92;100.00;101506.22;5049853;28;20032;-59
2023/03/15 03:47:04;;;;;;;5.43;1.13;;;;;;;3.01;100.00;101506.31;5029922;28;20028;-58
2023/03/15 03:49:30;;;;;;;10.90;1.10;;;;;;;3.02;100.00;101510.63;5047286;28;20477;-58
2023/03/15 03:51:55;;;;;;;4.28;1.20;;;;;;;3.02;100.00;101513.25;5045680;28;20036;-53
2023/03/15 03:54:20;;;;;;;6.90;1.92;;;;;;;2.97;100.00;101514.91;5047520;28;20031;-55
2023/03/15 03:56:46;;;;;;;4.95;0.70;;;;;;;2.92;100.00;101521.84;5048083;28;20035;-59
2023/03/15 03:59:12;;;;;;;4.53;0.80;;;;;;;2.79;100.00;101526.91;5010222;28;20485;-56
2023/03/15 04:01:37;;;;;;;6.38;0.98;;;;;;;2.63;100.00;101536.31;5028353;28;20040;-58
2023/03/15 04:04:03;;;;;;;3.08;1.10;;;;;;;2.50;100.00;101546.56;5027745;28;20109;-55
2023/03/15 04:06:28;;;;;;;4.15;1.10;;;;;;;2.47;100.00;101537.88;5027462;28;20481;-56
2023/03/15 04:08:53;;;;;;;5.28;1.50;;;;;;;2.34;100.00;101555.94;5028295;28;20079;-54
2023/03/15 04:11:19;;;;;;;5.95;1.33;;;;;;;2.21;100.00;101549.72;5030859;28;20082;-56
2023/03/15 04:13:44;;;;;;;3.72;1.10;;;;;;;2.17;100.00;101549.66;5047166;28;20501;-55
2023/03/15 04:16:09;;;;;;;6.45;1.73;;;;;;;2.06;100.00;101552.13;5046931;28;20094;-56
2023/03/15 04:18:35;;;;;;;0.90;0.73;;;;;;;2.01;100.00;101563.34;5047854;28;20139;-55
2023/03/15 04:21:00;;;;;;;5.45;0.90;;;;;;;2.03;100.00;101571.16;5047623;28;20500;-57
2023/03/15 04:23:25;;;;;;;4.13;1.42;;;;;;;2.08;100.00;101563.41;5046768;28;20377;-56
2023/03/15 04:25:51;;;;;;;5.28;1.55;;;;;;;2.13;100.00;101566.94;5046106;28;20055;-56
2023/03/15 04:28:18;;;;;;;3.15;1.27;;;;;;;2.12;100.00;101565.19;5047241;28;20090;-57
2023/03/15 04:30:43;;;;;;;5.32;1.35;;;;;;;2.11;100.00;101569.50;5047208;28;20028;-61
2023/03/15 04:33:09;;;;;;;5.80;1.10;;;;;;;2.11;100.00;101569.50;5047201;28;20120;-55
2023/03/15 04:35:36;;;;;;;5.10;1.00;;;;;;;2.15;100.00;101565.25;5047577;28;20028;-58
2023/03/15 04:38:02;;;;;;;4.03;1.42;;;;;;;2.17;100.00;101560.94;5046572;28;20385;-55
2023/03/15 04:40:29;;;;;;;6.97;0.80;;;;;;;2.07;100.00;101572.94;5046394;28;20033;-56
2023/03/15 04:42:55;;;;;;;8.40;1.25;;;;;;;2.02;100.00;101585.00;5047298;28;20029;-54
2023/03/15 04:45:23;;;;;;;6.38;1.20;;;;;;;1.96;100.00;101590.97;5028670;28;20047;-56
2023/03/15 04:47:50;;;;;;;3.38;1.15;;;;;;;1.96;100.00;101596.19;5046560;28;20036;-56
2023/03/15 04:50:15;;;;;;;5.63;1.10;;;;;;;1.96;100.00;101595.31;5047248;28;20494;-56
2023/03/15 04:52:41;;;;;;;4.50;1.20;;;;;;;1.92;100.00;101599.59;5046251;28;20033;-56
2023/03/15 04:55:07;;;;;;;5.30;1.48;;;;;;;1.87;100.00;101596.06;5047889;28;20028;-57
2023/03/15 04:57:32;;;;;;;3.97;1.25;;;;;;;1.81;100.00;101598.56;5047249;28;20032;-56
2023/03/15 04:59:57;;;;;;;4.18;1.50;;;;;;;1.76;100.00;101604.56;5029208;28;20078;-56
2023/03/15 05:02:23;;;;;;;5.70;1.33;;;;;;;1.73;100.00;101604.53;5029413;28;20025;-57
2023/03/15 05:04:48;;;;;;;10.20;1.58;;;;;;;1.70;100.00;101609.69;5027099;28;20078;-57
2023/03/15 05:07:13;;;;;;;3.50;1.15;;;;;;;1.64;100.00;101604.38;5025515;28;20054;-59
2023/03/15 05:09:39;;;;;;;9.32;1.95;;;;;;;1.69;100.00;101612.25;5041613;28;20029;-58
2023/03/15 05:12:04;;;;;;;4.90;1.35;;;;;;;1.68;100.00;101615.72;5047065;28;20036;-57
2023/03/15 05:14:31;;;;;;;5.40;1.70;;;;;;;1.70;100.00;101614.88;5045596;28;20076;-56
2023/03/15 05:16:58;;;;;;;4.38;1.50;;;;;;;1.83;100.00;101622.84;5048347;28;20041;-58
2023/03/15 05:19:27;;;;;;;5.95;1.42;;;;;;;1.91;100.00;101618.66;5049820;28;20513;-55
2023/03/15 05:21:53;;;;;;;4.90;1.80;;;;;;;2.08;100.00;101624.06;5050123;28;20020;-56
2023/03/15 05:24:19;;;;;;;9.90;1.73;;;;;;;2.19;100.00;101626.81;5050118;28;20040;-55
2023/03/15 05:26:45;;;;;;;4.78;1.52;;;;;;;2.27;100.00;101630.44;5047674;28;20029;-56
2023/03/15 05:29:11;;;;;;;7.97;1.70;;;;;;;2.37;100.00;101630.53;5050513;28;20486;-58
2023/03/15 05:31:37;;;;;;;3.03;1.60;;;;;;;2.50;100.00;101628.97;5049789;28;20048;-57
2023/03/15 05:34:03;;;;;;;7.40;1.88;;;;;;;2.57;100.00;101623.00;5050615;28;20037;-56
2023/03/15 05:36:29;;;;;;;4.97;1.65;;;;;;;2.56;100.00;101623.81;5049860;28;20052;-56
2023/03/15 05:38:55;;;;;;;6.50;1.60;;;;;;;2.59;100.00;101626.47;5050929;28;20439;-56
2023/03/15 05:41:20;;;;;;;5.38;1.45;;;;;;;2.52;100.00;101633.34;5033286;28;20109;-58
2023/03/15 05:43:46;;;;;;;1.92;1.50;;;;;;;2.26;100.00;101636.47;5030340;28;20521;-55
2023/03/15 05:46:11;;;;;;;10.27;2.00;;;;;;;2.25;100.00;101637.31;5043076;28;20519;-56
2023/03/15 05:48:37;;;;;;;4.97;1.40;;;;;;;2.18;100.00;101645.91;5050855;28;20025;-57
2023/03/15 05:51:02;;;;;;;7.57;1.33;;;;;;;2.12;100.00;101656.19;5050733;28;20397;-59
2023/03/15 05:53:27;;;;;;;6.65;1.88;;;;;;;2.11;100.00;101652.72;5049770;28;20106;-57
2023/03/15 05:55:53;;;;;;;7.15;1.70;;;;;;;2.11;100.00;101670.06;5050307;28;20036;-59
2023/03/15 05:58:18;;;;;;;4.95;1.60;;;;;;;2.12;100.00;101675.28;5049713;28;20037;-59
2023/03/15 06:00:43;;;;;;;7.75;2.00;;;;;;;2.14;100.00;101677.91;5049108;28;20059;-59
2023/03/15 06:03:09;;;;;;;4.35;1.67;;;;;;;2.10;100.00;101676.97;5048947;28;20107;-60
2023/03/15 06:05:34;;;;;;;7.85;2.20;;;;;;;2.06;100.00;101684.72;5049486;28;20079;-58
2023/03/15 06:07:59;;;;;;;5.18;2.17;;;;;;;2.06;100.00;101689.91;5031557;28;20029;-57
2023/03/15 06:10:25;;;;;;;5.43;1.77;;;;;;;2.05;100.00;101688.16;5049926;28;20021;-57
2023/03/15 06:12:51;;;;;;;6.22;1.98;;;;;;;2.02;100.00;101696.81;5049755;28;20057;-61
2023/03/15 06:15:17;;;;;;;11.27;2.30;;;;;;;1.98;100.00;101714.06;5048515;28;20032;-56
2023/03/15 06:17:42;;;;;;;4.20;2.17;;;;;;;1.96;100.00;101710.56;5049858;28;20480;-58
2023/03/15 06:20:08;;;;;;;8.13;2.33;;;;;;;1.99;100.00;101715.81;5049219;28;20035;-54
2023/03/15 06:22:33;;;;;;;8.45;2.65;;;;;;;1.93;100.00;101717.44;5049794;28;20692;-54
2023/03/15 06:24:59;;;;;;;9.95;2.97;;;;;;;1.86;100.00;101719.94;5048973;28;20048;-55
2023/03/15 06:27:24;;;;;;;6.10;3.20;;;;;;;1.92;100.00;101731.31;5048230;28;20037;-57
2023/03/15 06:29:50;;;;;;;4.38;2.97;;;;;;;1.90;100.00;101736.47;5049794;28;20043;-58
2023/03/15 06:32:15;;;;;;;10.80;2.55;;;;;;;1.97;100.00;101740.91;5048797;28;20068;-58
2023/03/15 06:34:40;;;;;;;10.73;2.90;;;;;;;1.99;100.00;101736.59;5049684;28;20082;-55
2023/03/15 06:37:06;;;;;;;15.70;3.53;;;;;;;1.80;100.00;101742.38;5049185;28;20047;-58
2023/03/15 06:39:33;;;;;;;5.32;3.30;;;;;;;1.76;100.00;101744.91;5047232;28;20029;-57
2023/03/15 06:42:01;;;;;;;9.88;3.17;;;;;;;1.86;100.00;101751.13;5033023;28;20028;-59
2023/03/15 06:44:26;;;;;;;12.45;3.67;;;;;;;1.91;100.00;101756.41;5048776;28;20476;-58
2023/03/15 06:46:51;;;;;;;11.68;2.90;;;;;;;1.98;100.00;101754.78;5036116;28;20036;-57
2023/03/15 06:49:17;;;;;;;12.38;3.42;;;;;;;1.85;100.00;101758.91;5034855;28;20016;-56
2023/03/15 06:51:44;;;;;;;8.85;3.17;;;;;;;1.80;100.00;101763.16;5045861;28;20082;-56
2023/03/15 06:54:09;;;;;;;10.50;2.70;;;;;;;1.85;100.00;101769.28;5046927;28;20061;-56
2023/03/15 06:56:36;;;;;;;8.45;3.30;;;;;;;2.05;100.00;101769.66;5047874;28;20048;-56
2023/03/15 06:59:02;;;;;;;8.93;4.55;;;;;;;2.12;100.00;101775.81;5047760;28;20044;-53
2023/03/15 07:01:27;;;;;;;17.27;4.97;;;;;;;2.19;100.00;101769.84;5046990;28;20437;-56
2023/03/15 07:03:52;;;;;;;9.40;4.55;;;;;;;2.06;100.00;101775.69;5047531;28;20048;-55
2023/03/15 07:06:18;;;;;;;6.00;3.80;;;;;;;2.02;100.00;101777.41;5031612;28;20175;-55
2023/03/15 07:08:43;;;;;;;13.45;3.75;;;;;;;1.99;100.00;101782.53;5027595;28;20485;-57
2023/03/15 07:11:08;;;;;;;8.90;3.17;;;;;;;2.08;100.00;101790.47;5027127;28;20474;-57
2023/03/15 07:13:34;;;;;;;13.02;3.15;;;;;;;2.15;100.00;101794.06;5027779;28;20436;-57
2023/03/15 07:15:59;;;;;;;14.30;3.10;;;;;;;2.30;100.00;101797.75;5027266;28;20025;-58
2023/03/15 07:18:25;;;;;;;16.80;3.22;;;;;;;2.35;100.00;101793.53;5046939;28;20021;-57
2023/03/15 07:21:00;;;;;;;14.88;3.95;;;;;;;2.36;100.00;101792.66;5045929;28;20099;-58
2023/03/15 07:23:26;;;;;;;12.73;2.92;;;;;;;2.48;100.00;101800.66;5046165;28;20021;-56
2023/03/15 07:25:53;;;;;;;13.27;3.60;;;;;;;2.51;100.00;101795.50;5046854;28;20056;-56
2023/03/15 07:28:18;;;;;;;10.05;3.38;;;;;;;2.61;100.00;101808.63;5032916;28;20041;-55
2023/03/15 07:30:55;;;;;;;5.82;2.90;;;;;;;2.73;100.00;101807.94;5028407;28;20025;-57
2023/03/15 07:33:23;;;;;;;17.33;4.00;;;;;;;2.80;100.00;101799.38;5010001;28;20461;-55
2023/03/15 07:35:50;;;;;;;12.00;3.03;;;;;;;2.92;100.00;101805.63;5040002;28;20089;-57
2023/03/15 07:38:16;;;;;;;15.57;3.28;;;;;;;2.98;100.00;101801.34;5043962;28;20024;-53
2023/03/15 07:40:41;;;;;;;12.13;3.10;;;;;;;3.04;100.00;101810.97;5046102;28;20021;-55
2023/03/15 07:43:06;;;;;;;15.82;2.70;;;;;;;3.09;100.00;101813.63;5046119;28;20028;-52
2023/03/15 07:45:32;;;;;;;7.22;2.38;;;;;;;3.12;100.00;101824.09;5046886;28;20032;-55
2023/03/15 07:47:59;;;;;;;9.48;2.58;;;;;;;3.22;100.00;101828.56;5046468;28;20600;-57
2023/03/15 07:50:24;;;;;;;15.15;2.38;;;;;;;3.29;100.00;101838.19;5045080;28;20203;-57
2023/03/15 07:52:50;;;;;;;11.60;3.53;;;;;;;3.35;100.00;101841.75;5026424;28;20147;-57
2023/03/15 07:55:15;;;;;;;13.93;2.92;;;;;;;3.41;100.00;101847.06;5044398;28;20013;-56
2023/03/15 07:57:40;;;;;;;7.38;2.28;;;;;;;3.45;100.00;101851.44;5045730;28;20044;-56
2023/03/15 08:00:07;;;;;;;11.10;2.05;;;;;;;3.47;100.00;101848.84;5043393;28;20037;-57
2023/03/15 08:02:33;;;;;;;9.50;2.80;;;;;;;3.54;100.00;101856.75;5035628;28;20029;-55
2023/03/15 08:04:58;;;;;;;12.50;2.20;;;;;;;3.63;100.00;101857.72;5045372;28;20029;-53
2023/03/15 08:07:23;;;;;;;6.28;2.10;;;;;;;3.70;100.00;101866.50;5042477;28;20486;-56
2023/03/15 08:09:49;;;;;;;6.03;2.00;;;;;;;3.74;100.00;101861.34;5045641;28;20056;-56
2023/03/15 08:12:15;;;;;;;9.23;2.05;;;;;;;3.74;100.00;101863.06;5018622;28;20041;-56
2023/03/15 08:14:40;;;;;;;10.75;2.05;;;;;;;3.83;100.00;101873.59;5049479;28;20059;-57
2023/03/15 08:17:06;;;;;;;10.40;2.03;;;;;;;3.96;100.00;101874.59;5044780;28;20025;-56
2023/03/15 08:19:31;;;;;;;12.20;2.38;;;;;;;4.18;100.00;101880.00;5043021;28;20424;-56
2023/03/15 08:21:56;;;;;;;4.07;1.60;;;;;;;4.30;100.00;101881.88;5038198;28;20077;-55
2023/03/15 08:24:22;;;;;;;12.98;1.90;;;;;;;4.31;100.00;101883.63;5044493;28;20017;-57
2023/03/15 08:26:47;;;;;;;7.10;2.03;;;;;;;4.40;100.00;101891.53;5044112;28;20036;-56
2023/03/15 08:29:14;;;;;;;8.43;1.90;;;;;;;4.50;100.00;101889.88;5045166;28;20029;-56
2023/03/15 08:31:40;;;;;;;12.40;2.42;;;;;;;4.57;100.00;101889.94;5043560;28;20025;-58
2023/03/15 08:34:05;;;;;;;7.65;1.67;;;;;;;4.46;100.00;101900.28;5044152;28;20051;-58
2023/03/15 08:36:31;;;;;;;7.97;1.90;;;;;;;4.44;100.00;101902.88;5029068;28;20533;-58
2023/03/15 08:38:56;;;;;;;7.05;2.28;;;;;;;4.50;100.00;101896.84;5046004;28;20425;-58
2023/03/15 08:41:22;;;;;;;9.25;2.30;;;;;;;4.62;100.00;101898.66;5046757;28;20025;-54
2023/03/15 08:43:47;;;;;;;6.53;1.70;;;;;;;4.52;100.00;101901.19;5046870;28;20482;-56
2023/03/15 08:46:12;;;;;;;9.18;2.13;;;;;;;4.48;100.00;101896.81;5047320;28;20021;-58
2023/03/15 08:48:38;;;;;;;7.25;1.40;;;;;;;4.59;100.00;101896.03;5023673;28;20236;-56
2023/03/15 08:51:05;;;;;;;10.38;1.83;;;;;;;4.74;100.00;101900.50;5028781;28;20033;-58
2023/03/15 08:53:30;;;;;;;5.40;1.42;;;;;;;4.80;100.00;101901.44;5030411;28;20133;-57
2023/03/15 08:55:56;;;;;;;11.18;1.90;;;;;;;4.91;100.00;101890.19;5031032;28;20485;-56
2023/03/15 08:58:21;;;;;;;9.93;1.80;;;;;;;4.95;100.00;101898.91;5030917;28;20061;-57
2023/03/15 09:00:48;;;;;;;7.63;1.48;;;;;;;5.01;100.00;101899.84;5031350;28;20113;-56
2023/03/15 09:03:14;;;;;;;8.00;2.03;;;;;;;5.00;100.00;101898.06;5030341;28;20035;-54
2023/03/15 09:05:40;;;;;;;9.68;1.73;;;;;;;5.03;100.00;101897.25;5029878;28;20026;-56
2023/03/15 09:08:05;;;;;;;6.80;1.42;;;;;;;5.10;100.00;101887.69;5031446;28;20018;-56
2023/03/15 09:10:31;;;;;;;6.43;1.35;;;;;;;5.17;100.00;101895.56;5030465;28;20682;-57
2023/03/15 09:12:56;;;;;;;11.02;1.90;;;;;;;5.26;100.00;101880.78;5029300;28;20556;-57
2023/03/15 09:15:21;;;;;;;11.57;1.50;;;;;;;5.35;100.00;101887.81;5011762;28;20022;-53
2023/03/15 09:17:49;;;;;;;7.63;1.40;;;;;;;5.40;100.00;101881.75;5029658;28;20500;-58
2023/03/15 09:20:15;;;;;;;10.93;1.98;;;;;;;5.41;100.00;101878.28;5027356;28;20537;-53
2023/03/15 09:22:49;;;;;;;5.72;1.83;;;;;;;5.59;100.00;101878.31;5027013;28;20036;-54
2023/03/15 09:25:14;;;;;;;6.43;1.50;;;;;;;5.84;100.00;101878.41;5027671;28;20022;-56
2023/03/15 09:27:40;;;;;;;6.85;1.58;;;;;;;5.95;100.00;101884.53;5027815;28;20429;-57
2023/03/15 09:30:06;;;;;;;6.78;1.40;;;;;;;5.99;100.00;101880.22;5042275;28;20029;-55
2023/03/15 09:32:35;;;;;;;7.93;1.70;;;;;;;6.01;100.00;101886.28;5047095;28;20029;-57
2023/03/15 09:35:03;;;;;;;6.65;1.80;;;;;;;6.15;100.00;101882.00;5047173;28;20053;-54
2023/03/15 09:37:29;;;;;;;10.07;1.63;;;;;;;6.30;100.00;101890.75;5046393;28;20408;-56
2023/03/15 09:39:54;;;;;;;6.53;1.60;;;;;;;6.25;100.00;101895.97;5048334;28;20025;-55
2023/03/15 09:42:27;;;;;;;6.15;1.25;;;;;;;6.39;100.00;101901.25;5046696;28;20100;-56
2023/03/15 09:45:38;;;;;;;5.97;1.38;;;;;;;6.42;100.00;101897.75;5048872;28;20036;-57
2023/03/15 09:48:28;;;;;;;4.07;1.67;;;;;;;6.34;99.62;101907.31;5012205;28;20077;-55
2023/03/15 09:51:00;;;;;;;6.40;1.58;;;;;;;6.37;100.00;101905.59;5035357;28;20029;-58
2023/03/15 09:53:53;;;;;;;13.23;2.03;;;;;;;6.34;97.93;101899.47;5046924;28;20037;-58
2023/03/15 09:56:25;;;;;;;5.60;1.27;;;;;;;6.42;94.53;101895.13;5023065;28;20074;-58
2023/03/15 09:58:54;;;;;;;5.10;1.92;;;;;;;6.35;94.45;101903.84;5046598;28;20056;-56
2023/03/15 10:01:24;;;;;;;6.43;1.40;;;;;;;6.27;95.32;101902.09;5029585;28;20037;-59
2023/03/15 10:03:51;;;;;;;7.70;1.35;;;;;;;6.33;95.24;101903.84;5028606;28;20518;-56
2023/03/15 10:06:22;;;;;;;10.20;2.13;;;;;;;6.37;93.62;101905.59;5028736;28;20025;-56
2023/03/15 10:08:49;;;;;;;10.30;1.50;;;;;;;6.44;94.41;101914.31;5033011;28;20033;-56
2023/03/15 10:11:27;;;;;;;6.85;1.33;;;;;;;6.60;91.21;101911.72;5010245;28;20035;-56
2023/03/15 10:14:07;;;;;;;7.57;1.50;;;;;;;6.48;85.17;101916.06;5040826;28;20110;-57
2023/03/15 10:16:40;;;;;;;8.27;1.42;;;;;;;6.53;81.68;101913.47;5047493;28;20424;-58
2023/03/15 10:19:24;;;;;;;6.38;1.98;;;;;;;6.64;81.40;101909.09;5047504;28;20033;-58
2023/03/15 10:22:01;;;;;;;13.73;1.83;;;;;;;6.54;77.22;101913.44;5047388;28;20072;-56
2023/03/15 10:24:45;;;;;;;3.25;1.25;;;;;;;6.73;82.30;101921.31;5046826;28;20029;-56
2023/03/15 10:27:17;;;;;;;12.02;1.70;;;;;;;6.76;81.41;101923.94;5047936;28;20151;-56
2023/03/15 10:29:43;;;;;;;8.82;1.48;;;;;;;6.70;82.97;101929.16;5049197;28;20420;-58
2023/03/15 10:32:17;;;;;;;7.40;1.30;;;;;;;6.90;84.89;101933.53;5044860;28;20030;-60
2023/03/15 10:34:47;;;;;;;8.98;1.35;;;;;;;6.93;85.45;101934.38;5045594;28;20496;-59
2023/03/15 10:37:12;;;;;;;10.15;1.48;;;;;;;7.10;83.78;101933.50;5045636;28;20036;-57
2023/03/15 10:39:38;;;;;;;8.52;1.95;;;;;;;7.30;83.50;101938.72;5048004;28;20025;-55
2023/03/15 10:42:03;;;;;;;6.97;2.05;;;;;;;7.52;82.38;101936.00;5045982;28;20036;-60
2023/03/15 10:44:28;;;;;;;5.45;1.38;;;;;;;7.46;78.74;101939.53;5045654;28;20025;-55
2023/03/15 10:47:12;;;;;;;13.45;1.40;;;;;;;7.56;81.86;101948.22;5045899;28;20032;-59
2023/03/15 10:49:43;;;;;;;4.97;1.30;;;;;;;7.59;82.50;101942.13;5047080;28;20120;-59
2023/03/15 10:52:36;;;;;;;6.68;1.23;;;;;;;7.51;81.54;101950.00;5045496;28;20476;-61
2023/03/15 10:55:06;;;;;;;6.63;1.40;;;;;;;7.63;82.26;101945.59;5044341;28;20033;-56
2023/03/15 10:57:39;;;;;;;6.68;1.23;;;;;;;7.65;82.40;101955.19;5044715;28;20364;-59
2023/03/15 11:00:22;;;;;;;5.35;0.98;;;;;;;7.87;77.87;101957.75;5045891;28;20428;-57
2023/03/15 11:02:51;;;;;;;6.68;1.27;;;;;;;7.99;76.97;101956.81;5045056;28;20037;-58
2023/03/15 11:05:17;;;;;;;8.75;1.45;;;;;;;7.77;75.72;101961.28;5044044;28;20040;-58
2023/03/15 11:07:54;;;;;;;11.57;1.50;;;;;;;7.77;77.00;101959.50;5044852;28;20116;-57
2023/03/15 11:10:24;;;;;;;9.80;1.40;;;;;;;7.75;74.00;101960.41;5044924;28;20029;-58
2023/03/15 11:12:49;;;;;;;7.00;1.05;;;;;;;8.10;75.80;101972.53;5044400;28;20088;-59
2023/03/15 11:15:17;;;;;;;7.70;1.30;;;;;;;8.29;74.51;101975.03;5025553;28;20026;-57
2023/03/15 11:17:45;;;;;;;4.00;1.70;;;;;;;8.21;75.44;101969.81;5045401;28;20104;-58
2023/03/15 11:20:26;;;;;;;7.95;1.27;;;;;;;8.37;74.74;101970.59;5042015;28;20067;-61
2023/03/15 11:22:52;;;;;;;6.70;1.30;;;;;;;8.68;74.49;101977.44;5028159;28;20025;-57
2023/03/15 11:25:19;;;;;;;7.90;1.77;;;;;;;8.68;71.35;101970.44;5025649;28;20051;-55